createdAt,value
2023-01-18T00:01:08.342Z,0.93
2023-01-18T00:06:12.267Z,1.04
2023-01-18T00:11:17.517Z,1.13
2023-01-18T00:16:22.594Z,1.18
2023-01-18T00:21:28.198Z,1.20
2023-01-18T00:26:32.015Z,1.22
2023-01-18T00:31:35.817Z,1.26
2023-01-18T00:36:41.518Z,1.29
2023-01-18T00:42:05.558Z,1.34
2023-01-18T00:47:09.432Z,1.39
2023-01-18T00:52:13.343Z,1.45
2023-01-18T00:57:17.238Z,1.51
2023-01-18T01:02:21.140Z,1.50
2023-01-18T01:07:25.219Z,1.50
2023-01-18T01:12:47.579Z,1.57
2023-01-18T01:18:09.898Z,1.59
2023-01-18T01:23:40.995Z,1.59
2023-01-18T01:28:50.136Z,1.59
2023-01-18T01:33:53.959Z,1.58
2023-01-18T01:38:58.284Z,1.58
2023-01-18T01:44:21.899Z,1.58
2023-01-18T01:49:30.319Z,1.57
2023-01-18T01:54:38.919Z,1.55
2023-01-18T01:59:47.606Z,1.52
2023-01-18T02:04:53.999Z,1.49
2023-01-18T02:09:58.335Z,1.45
2023-01-18T02:15:02.515Z,1.39
2023-01-18T02:20:44.379Z,1.35
2023-01-18T02:26:33.676Z,1.33
2023-01-18T02:32:11.402Z,1.35
2023-01-18T02:37:52.036Z,1.41
2023-01-18T02:43:16.249Z,1.48
2023-01-18T02:48:22.099Z,1.53
2023-01-18T02:53:25.915Z,1.56
2023-01-18T02:58:56.259Z,1.61
2023-01-18T03:04:08.045Z,1.64
2023-01-18T03:09:18.779Z,1.66
2023-01-18T03:14:47.960Z,1.71
2023-01-18T03:20:05.464Z,1.77
2023-01-18T03:25:13.833Z,1.81
2023-01-18T03:30:36.295Z,1.85
2023-01-18T03:35:41.139Z,1.90
2023-01-18T03:40:45.016Z,1.95
2023-01-18T03:45:49.833Z,2.02
2023-01-18T03:51:15.136Z,2.10
2023-01-18T03:56:30.339Z,2.17
2023-01-18T04:01:34.294Z,2.25
2023-01-18T04:06:38.142Z,2.31
2023-01-18T04:11:41.883Z,2.38
2023-01-18T04:16:45.866Z,2.45
2023-01-18T04:21:49.561Z,2.49
2023-01-18T04:26:53.298Z,2.51
2023-01-18T04:31:57.281Z,2.50
2023-01-18T04:37:01.214Z,2.50
2023-01-18T04:42:05.295Z,2.48
2023-01-18T04:47:09.036Z,2.47
2023-01-18T04:52:12.977Z,2.46
2023-01-18T04:57:17.005Z,2.45
2023-01-18T05:02:20.838Z,2.44
2023-01-18T05:07:25.676Z,2.45
2023-01-18T05:12:30.093Z,2.45
2023-01-18T05:17:35.600Z,2.44
2023-01-18T05:22:39.721Z,2.45
2023-01-18T05:27:43.470Z,2.46
2023-01-18T05:32:47.269Z,2.46
2023-01-18T05:37:51.092Z,2.48
2023-01-18T05:42:54.993Z,2.48
2023-01-18T05:47:59.855Z,2.49
2023-01-18T05:53:03.603Z,2.47
2023-01-18T05:58:07.413Z,2.43
2023-01-18T06:03:11.150Z,2.41
2023-01-18T06:08:15.927Z,2.39
2023-01-18T06:13:19.931Z,2.35
2023-01-18T06:18:26.529Z,2.33
2023-01-18T06:23:31.406Z,2.29
2023-01-18T06:28:35.424Z,2.22
2023-01-18T06:33:39.234Z,2.17
2023-01-18T06:38:43.350Z,2.14
2023-01-18T06:43:47.194Z,2.11
2023-01-18T06:48:50.790Z,2.09
2023-01-18T06:53:54.549Z,2.09
2023-01-18T06:58:59.872Z,2.08
2023-01-18T07:04:03.721Z,2.07
2023-01-18T07:09:08.542Z,2.07
2023-01-18T07:14:15.318Z,2.06
2023-01-18T07:19:19.186Z,2.09
2023-01-18T07:24:22.959Z,2.10
2023-01-18T07:29:28.043Z,2.12
2023-01-18T07:34:32.800Z,2.15
2023-01-18T07:39:36.596Z,2.20
2023-01-18T07:44:40.405Z,2.23
2023-01-18T07:49:45.142Z,2.27
2023-01-18T07:54:48.898Z,2.31
2023-01-18T07:59:53.321Z,2.36
2023-01-18T08:04:56.998Z,2.40
2023-01-18T08:10:00.723Z,2.43
2023-01-18T08:15:05.165Z,2.49
2023-01-18T08:20:10.353Z,2.55
2023-01-18T08:25:14.638Z,2.62
2023-01-18T08:30:18.731Z,2.64
2023-01-18T08:35:23.848Z,2.65
2023-01-18T08:40:28.618Z,2.67
2023-01-18T08:45:33.490Z,2.70
2023-01-18T08:50:39.585Z,2.76
2023-01-18T08:55:43.585Z,2.79
2023-01-18T09:00:50.919Z,2.85
2023-01-18T09:05:54.946Z,2.90
2023-01-18T09:11:06.220Z,2.91
2023-01-18T09:16:11.708Z,2.92
2023-01-18T09:21:19.719Z,2.86
2023-01-18T09:26:23.677Z,2.78
2023-01-18T09:31:29.094Z,2.74
2023-01-18T09:36:33.078Z,2.69
2023-01-18T09:41:51.039Z,2.63
2023-01-18T09:47:11.169Z,2.61
2023-01-18T09:53:03.388Z,2.62
2023-01-18T09:58:49.179Z,2.66
2023-01-18T10:03:56.947Z,2.67
2023-01-18T10:09:07.226Z,2.69
2023-01-18T10:14:49.378Z,2.78
2023-01-18T10:19:53.259Z,2.84
2023-01-18T10:25:21.345Z,2.90
2023-01-18T10:30:40.886Z,2.97
2023-01-18T10:35:51.103Z,2.95
2023-01-18T10:41:01.097Z,2.94
2023-01-18T10:46:14.883Z,2.94
2023-01-18T10:51:29.716Z,2.96
2023-01-18T10:56:34.890Z,3.00
2023-01-18T11:01:55.039Z,2.99
2023-01-18T11:07:03.753Z,3.02
2023-01-18T11:12:43.244Z,3.02
2023-01-18T11:18:03.217Z,2.95
2023-01-18T11:23:32.214Z,2.94
2023-01-18T11:28:48.690Z,2.90
2023-01-18T11:34:01.033Z,2.84
2023-01-18T11:39:45.477Z,2.82
2023-01-18T11:45:13.799Z,2.82
2023-01-18T11:50:49.759Z,2.81
2023-01-18T11:56:06.767Z,2.83
2023-01-18T12:01:39.203Z,2.85
2023-01-18T12:07:18.509Z,2.82
2023-01-18T12:12:57.770Z,2.82
2023-01-18T12:18:38.779Z,2.82
2023-01-18T12:24:21.075Z,2.84
2023-01-18T12:29:55.884Z,2.82
2023-01-18T12:35:33.189Z,2.77
2023-01-18T12:41:03.055Z,2.75
2023-01-18T12:46:32.461Z,2.73
2023-01-18T12:51:38.031Z,2.74
2023-01-18T12:56:47.713Z,2.78
2023-01-18T13:02:03.603Z,2.81
2023-01-18T13:07:13.561Z,2.83
2023-01-18T13:12:20.660Z,2.88
2023-01-18T13:17:41.681Z,3.01
2023-01-18T13:23:16.448Z,3.06
2023-01-18T13:28:24.989Z,3.03
2023-01-18T13:33:48.097Z,2.97
2023-01-18T13:39:03.937Z,2.93
2023-01-18T13:44:32.676Z,2.92
2023-01-18T13:49:46.279Z,2.94
2023-01-18T13:55:26.338Z,2.99
2023-01-18T14:00:30.551Z,2.99
2023-01-18T14:05:40.252Z,3.03
2023-01-18T14:10:50.534Z,3.05
2023-01-18T14:15:55.917Z,3.06
2023-01-18T14:21:33.590Z,2.98
2023-01-18T14:26:41.017Z,2.81
2023-01-18T14:31:51.670Z,2.70
2023-01-18T14:36:57.138Z,2.61
2023-01-18T14:42:04.235Z,2.51
2023-01-18T14:47:24.382Z,2.41
2023-01-18T14:52:31.105Z,2.31
2023-01-18T14:57:35.743Z,2.22
2023-01-18T15:02:39.642Z,2.14
2023-01-18T15:07:46.997Z,2.07
2023-01-18T15:12:53.725Z,2.00
2023-01-18T15:18:10.789Z,1.95
2023-01-18T15:23:14.578Z,1.93
2023-01-18T15:28:23.825Z,1.92
2023-01-18T15:33:28.653Z,1.92
2023-01-18T15:38:33.061Z,1.92
2023-01-18T15:43:45.279Z,1.93
2023-01-18T15:48:55.948Z,1.94
2023-01-18T15:53:59.551Z,1.95
2023-01-18T15:59:10.114Z,1.98
2023-01-18T16:04:13.964Z,1.99
2023-01-18T16:09:21.333Z,2.00
2023-01-18T16:14:54.303Z,2.01
2023-01-18T16:19:58.262Z,2.04
2023-01-18T16:25:17.375Z,2.06
2023-01-18T16:30:31.157Z,2.07
2023-01-18T16:35:41.151Z,2.09
2023-01-18T16:40:50.360Z,2.10
2023-01-18T16:45:59.375Z,2.12
2023-01-18T16:51:17.407Z,2.14
2023-01-18T16:56:23.106Z,2.14
2023-01-18T17:01:30.828Z,2.17
2023-01-18T17:06:35.503Z,2.17
2023-01-18T17:11:42.716Z,2.16
2023-01-18T17:16:52.892Z,2.16
2023-01-18T17:21:58.623Z,2.18
2023-01-18T17:27:03.104Z,2.20
2023-01-18T17:32:08.747Z,2.22
2023-01-18T17:37:15.620Z,2.25
2023-01-18T17:42:29.780Z,2.27
2023-01-18T17:47:35.727Z,2.31
2023-01-18T17:52:42.085Z,2.34
2023-01-18T17:57:47.248Z,2.39
2023-01-18T18:02:54.639Z,2.43
2023-01-18T18:08:01.494Z,2.46
2023-01-18T18:13:06.751Z,2.48
2023-01-18T18:18:22.705Z,2.49
2023-01-18T18:23:31.180Z,2.50
2023-01-18T18:28:38.722Z,2.51
2023-01-18T18:33:44.479Z,2.52
2023-01-18T18:38:50.376Z,2.53
2023-01-18T18:43:55.333Z,2.53
2023-01-18T18:49:05.372Z,2.54
2023-01-18T18:54:12.398Z,2.53
2023-01-18T18:59:17.994Z,2.53
2023-01-18T19:04:23.456Z,2.53
2023-01-18T19:09:29.083Z,2.53
2023-01-18T19:14:34.860Z,2.52
2023-01-18T19:19:39.503Z,2.50
2023-01-18T19:24:45.301Z,2.48
2023-01-18T19:29:50.944Z,2.45
2023-01-18T19:34:55.775Z,2.42
2023-01-18T19:40:00.885Z,2.38
2023-01-18T19:45:19.614Z,2.36
2023-01-18T19:50:31.702Z,2.36
2023-01-18T19:55:39.356Z,2.35
2023-01-18T20:00:46.209Z,2.35
2023-01-18T20:05:51.380Z,2.35
2023-01-18T20:10:56.511Z,2.34
2023-01-18T20:16:06.457Z,2.32
2023-01-18T20:21:14.920Z,2.34
2023-01-18T20:26:34.918Z,2.35
2023-01-18T20:31:49.629Z,2.37
2023-01-18T20:37:03.438Z,2.39
2023-01-18T20:42:10.977Z,2.41
2023-01-18T20:47:17.676Z,2.41
2023-01-18T20:52:22.286Z,2.39
2023-01-18T20:57:32.942Z,2.35
2023-01-18T21:02:38.096Z,2.32
2023-01-18T21:07:42.243Z,2.27
2023-01-18T21:12:48.275Z,2.25
2023-01-18T21:17:54.960Z,2.22
2023-01-18T21:23:00.557Z,2.20
2023-01-18T21:28:04.575Z,2.16
2023-01-18T21:33:11.685Z,2.12
2023-01-18T21:38:16.605Z,2.09
2023-01-18T21:43:40.659Z,2.03
2023-01-18T21:48:44.376Z,2.01
2023-01-18T21:54:07.497Z,2.01
2023-01-18T21:59:38.325Z,1.99
2023-01-18T22:18:16.048Z,1.95
2023-01-18T22:23:23.574Z,1.94
2023-01-18T22:28:29.377Z,1.91
2023-01-18T22:33:33.559Z,1.87
2023-01-18T22:38:38.383Z,1.85
2023-01-18T22:43:42.825Z,1.82
2023-01-18T22:48:50.389Z,1.77
2023-01-18T22:53:58.862Z,1.69
2023-01-18T22:59:02.746Z,1.64
2023-01-18T23:04:07.096Z,1.61
2023-01-18T23:09:10.844Z,1.60
2023-01-18T23:14:33.396Z,1.58
2023-01-18T23:19:37.171Z,1.54
2023-01-18T23:24:40.945Z,1.49
2023-01-18T23:29:47.705Z,1.45
2023-01-18T23:34:51.516Z,1.43
2023-01-18T23:40:14.486Z,1.43
2023-01-18T23:45:37.097Z,1.49
2023-01-18T23:50:59.629Z,1.56
2023-01-18T23:56:03.382Z,1.61
